Time;durP1;ratioP1;P1;durP2;ratioP2;P2;SDS_P1;SDS_P2;PMS_P1;PMS_P2;Temp;Humidity;BMP_temperature;BMP_pressure;BME280_temperature;BME280_humidity;BME280_pressure;Samples;Min_cycle;Max_cycle;Signal;HPM_P1;HPM_P2
2021/10/21 00:02:13;;;;;;;3.05;0.80;;;16.00;77.20;;;;;;5134026;27;20050;-63
2021/10/21 00:04:39;;;;;;;1.50;0.90;;;16.00;77.20;;;;;;5133476;27;20122;-63
2021/10/21 00:07:05;;;;;;;1.83;0.90;;;16.10;77.30;;;;;;5132513;27;20114;-64
2021/10/21 00:09:30;;;;;;;1.67;0.80;;;16.00;77.20;;;;;;5134039;27;20035;-61
2021/10/21 00:11:56;;;;;;;1.80;0.90;;;16.00;77.20;;;;;;5133739;27;20035;-64
2021/10/21 00:14:22;;;;;;;0.82;0.73;;;16.00;77.20;;;;;;5133913;27;20058;-64
2021/10/21 00:16:48;;;;;;;1.88;0.90;;;16.00;77.20;;;;;;5133850;27;20039;-61
2021/10/21 00:19:13;;;;;;;1.15;0.82;;;16.00;77.20;;;;;;5133112;27;20149;-62
2021/10/21 00:21:39;;;;;;;1.13;0.60;;;16.00;77.20;;;;;;5133141;27;20491;-63
2021/10/21 00:24:05;;;;;;;1.48;0.85;;;16.00;77.20;;;;;;5115075;27;20051;-64
2021/10/21 00:26:30;;;;;;;0.98;0.70;;;16.00;77.20;;;;;;5133548;27;20042;-59
2021/10/21 00:28:56;;;;;;;1.63;0.90;;;16.00;77.20;;;;;;5114732;28;20122;-64
2021/10/21 00:31:22;;;;;;;1.10;0.80;;;16.00;77.20;;;;;;5133503;28;20491;-58
2021/10/21 00:33:48;;;;;;;1.58;0.85;;;16.00;77.20;;;;;;5133482;28;20047;-59
2021/10/21 00:36:14;;;;;;;1.80;1.13;;;16.00;77.20;;;;;;5133378;28;20119;-64
2021/10/21 00:38:39;;;;;;;1.10;0.82;;;16.00;77.20;;;;;;5132448;28;20449;-64
2021/10/21 00:41:05;;;;;;;1.17;0.82;;;16.00;77.20;;;;;;5112938;28;20040;-63
2021/10/21 00:43:36;;;;;;;1.80;0.70;;;16.00;77.20;;;;;;5112995;28;20119;-57
2021/10/21 00:46:06;;;;;;;2.45;0.80;;;16.00;77.20;;;;;;5112634;28;20492;-60
2021/10/21 00:48:34;;;;;;;1.27;0.75;;;16.00;77.20;;;;;;5128859;28;20135;-58
2021/10/21 00:50:59;;;;;;;1.48;0.70;;;16.00;77.20;;;;;;5127239;28;20392;-60
2021/10/21 00:53:28;;;;;;;1.02;0.73;;;16.00;77.20;;;;;;5132553;28;20032;-61
2021/10/21 00:55:54;;;;;;;1.77;0.80;;;16.00;77.20;;;;;;5132926;28;20043;-59
2021/10/21 00:58:20;;;;;;;1.13;0.77;;;16.00;77.20;;;;;;5133281;28;20035;-61
2021/10/21 01:00:45;;;;;;;0.82;0.70;;;16.00;77.30;;;;;;5132922;28;20459;-62
2021/10/21 01:03:11;;;;;;;1.40;0.80;;;15.90;77.20;;;;;;5133361;28;20118;-61
2021/10/21 01:05:37;;;;;;;1.15;0.63;;;16.00;77.30;;;;;;5133267;28;20047;-61
2021/10/21 01:08:03;;;;;;;1.40;0.90;;;16.00;77.30;;;;;;5132630;28;20130;-61
2021/10/21 01:10:29;;;;;;;1.63;0.80;;;16.00;77.20;;;;;;5132545;28;20082;-63
2021/10/21 01:12:54;;;;;;;1.23;0.82;;;16.00;77.30;;;;;;5132638;28;20053;-62
2021/10/21 01:15:21;;;;;;;1.67;0.80;;;16.00;77.30;;;;;;5132754;28;20126;-64
2021/10/21 01:17:49;;;;;;;0.90;0.70;;;16.00;77.30;;;;;;5133559;27;20086;-62
2021/10/21 01:20:15;;;;;;;1.83;0.90;;;16.00;77.30;;;;;;5137039;27;20444;-61
2021/10/21 01:22:42;;;;;;;2.58;0.80;;;16.00;77.30;;;;;;5136420;27;20035;-61
2021/10/21 01:25:08;;;;;;;2.08;0.80;;;16.00;77.30;;;;;;5136721;27;20043;-61
2021/10/21 01:27:34;;;;;;;1.60;0.90;;;16.00;77.30;;;;;;5136547;27;20536;-62
2021/10/21 01:29:59;;;;;;;1.83;1.13;;;16.10;77.40;;;;;;5136654;27;20028;-63
2021/10/21 01:32:28;;;;;;;2.78;1.08;;;16.00;77.40;;;;;;5136244;27;20080;-61
2021/10/21 01:34:54;;;;;;;1.60;1.00;;;16.00;77.50;;;;;;5118367;27;20047;-62
2021/10/21 01:37:19;;;;;;;1.83;0.90;;;16.00;77.60;;;;;;5136447;27;20083;-64
2021/10/21 01:39:45;;;;;;;1.95;0.80;;;16.00;77.70;;;;;;5136316;27;20035;-64
2021/10/21 01:42:11;;;;;;;2.50;1.10;;;16.00;77.90;;;;;;5135864;27;20054;-64
2021/10/21 01:44:37;;;;;;;2.22;1.10;;;16.00;78.00;;;;;;5135961;27;20034;-62
2021/10/21 01:47:02;;;;;;;2.10;1.15;;;16.00;78.10;;;;;;5136291;27;20087;-61
2021/10/21 01:49:28;;;;;;;1.50;1.08;;;16.00;78.20;;;;;;5136455;27;20100;-61
2021/10/21 01:51:54;;;;;;;1.85;1.10;;;16.00;78.90;;;;;;5135930;27;20422;-63
2021/10/21 01:54:19;;;;;;;1.77;0.90;;;16.10;78.40;;;;;;5135909;27;20039;-60
2021/10/21 01:56:46;;;;;;;2.30;0.90;;;16.00;78.40;;;;;;5135736;27;20467;-64
2021/10/21 01:59:11;;;;;;;2.00;0.93;;;16.00;78.40;;;;;;5136132;27;20045;-64
2021/10/21 02:01:37;;;;;;;1.85;1.20;;;16.00;78.50;;;;;;5136322;27;20122;-64
2021/10/21 02:04:04;;;;;;;3.55;1.27;;;16.00;78.50;;;;;;5135770;27;20394;-62
2021/10/21 02:06:30;;;;;;;1.95;1.00;;;16.00;78.50;;;;;;5136418;27;20498;-64
2021/10/21 02:08:55;;;;;;;1.67;1.10;;;16.00;78.40;;;;;;5136126;27;20063;-61
2021/10/21 02:11:21;;;;;;;1.15;1.00;;;16.00;78.40;;;;;;5135678;27;20043;-63
2021/10/21 02:13:47;;;;;;;2.75;1.20;;;16.00;78.40;;;;;;5135281;27;20088;-64
2021/10/21 02:16:13;;;;;;;1.95;0.98;;;16.00;78.30;;;;;;5135624;27;20104;-62
2021/10/21 02:18:39;;;;;;;1.70;1.08;;;16.00;78.30;;;;;;5135424;27;20430;-64
2021/10/21 02:21:04;;;;;;;1.25;1.00;;;16.00;78.30;;;;;;5135861;27;20054;-64
2021/10/21 02:23:30;;;;;;;1.83;1.10;;;15.90;78.20;;;;;;5116993;27;20380;-64
2021/10/21 02:25:56;;;;;;;1.40;0.95;;;16.00;78.40;;;;;;5135162;27;20088;-59
2021/10/21 02:28:22;;;;;;;2.20;0.95;;;16.00;78.40;;;;;;5116693;27;20403;-59
2021/10/21 02:30:47;;;;;;;1.65;1.20;;;16.00;78.50;;;;;;5134936;27;20414;-62
2021/10/21 02:33:13;;;;;;;1.02;0.77;;;16.00;78.50;;;;;;5135807;27;20047;-64
2021/10/21 02:35:39;;;;;;;1.30;0.88;;;16.00;78.40;;;;;;5135746;27;20039;-64
2021/10/21 02:38:05;;;;;;;1.48;1.00;;;15.90;78.40;;;;;;5116372;27;20047;-62
2021/10/21 02:40:31;;;;;;;2.72;1.02;;;16.00;78.40;;;;;;5135420;27;20391;-64
2021/10/21 02:42:57;;;;;;;1.15;0.98;;;15.90;78.40;;;;;;5134910;27;20063;-63
2021/10/21 02:45:23;;;;;;;1.75;1.05;;;16.00;78.40;;;;;;5134617;27;20455;-59
2021/10/21 02:47:49;;;;;;;0.95;0.70;;;15.90;78.40;;;;;;5134989;27;20035;-62
2021/10/21 02:50:14;;;;;;;0.75;0.70;;;15.90;78.40;;;;;;5135228;27;20038;-61
2021/10/21 02:52:41;;;;;;;2.20;0.88;;;15.90;78.60;;;;;;5116497;27;20452;-59
2021/10/21 02:55:07;;;;;;;1.60;1.00;;;15.90;78.40;;;;;;5134894;27;20440;-60
2021/10/21 02:57:34;;;;;;;0.95;0.90;;;15.90;78.40;;;;;;5149063;27;20051;-60
2021/10/21 02:59:59;;;;;;;1.80;0.80;;;16.00;78.50;;;;;;5134188;27;20571;-63
2021/10/21 03:02:26;;;;;;;1.38;0.75;;;15.90;78.40;;;;;;5134438;27;20118;-61
2021/10/21 03:04:51;;;;;;;1.90;1.05;;;15.90;78.40;;;;;;5134980;27;20039;-63
2021/10/21 03:07:17;;;;;;;1.13;0.82;;;15.90;78.40;;;;;;5134979;27;20043;-63
2021/10/21 03:09:43;;;;;;;2.00;1.10;;;16.00;78.50;;;;;;5115836;27;20187;-61
2021/10/21 03:12:08;;;;;;;1.67;0.88;;;15.90;78.40;;;;;;5115946;27;20043;-62
2021/10/21 03:14:34;;;;;;;1.08;0.90;;;15.90;78.40;;;;;;5134622;27;20043;-62
2021/10/21 03:17:00;;;;;;;1.23;0.93;;;15.90;78.40;;;;;;5115372;27;20455;-62
2021/10/21 03:19:25;;;;;;;1.95;0.80;;;15.90;78.40;;;;;;5133875;27;20050;-62
2021/10/21 03:21:51;;;;;;;2.50;0.85;;;15.90;78.40;;;;;;5134629;27;20122;-61
2021/10/21 03:24:17;;;;;;;0.90;0.80;;;15.90;78.40;;;;;;5134300;27;20088;-61
2021/10/21 03:26:43;;;;;;;1.35;0.90;;;15.90;78.40;;;;;;5134243;27;20039;-62
2021/10/21 03:29:08;;;;;;;1.85;0.80;;;15.90;78.40;;;;;;5133989;27;20043;-61
2021/10/21 03:31:35;;;;;;;1.40;0.77;;;15.90;78.40;;;;;;5115490;27;20071;-62
2021/10/21 03:34:00;;;;;;;0.77;0.60;;;15.90;78.40;;;;;;5133755;27;20092;-63
2021/10/21 03:36:26;;;;;;;1.48;0.73;;;15.90;78.40;;;;;;5115885;27;20433;-62
2021/10/21 03:38:52;;;;;;;1.23;0.68;;;15.90;78.40;;;;;;5134016;27;20051;-63
2021/10/21 03:41:18;;;;;;;1.40;0.88;;;15.90;78.40;;;;;;5132783;27;20522;-63
2021/10/21 03:43:44;;;;;;;2.25;0.68;;;15.90;78.30;;;;;;5133977;27;20070;-60
2021/10/21 03:46:09;;;;;;;0.73;0.65;;;15.90;78.30;;;;;;5133869;27;20074;-62
2021/10/21 03:48:35;;;;;;;1.30;0.77;;;15.90;78.30;;;;;;5133652;27;20039;-63
2021/10/21 03:51:01;;;;;;;0.95;0.60;;;15.90;78.30;;;;;;5133677;27;20035;-62
2021/10/21 03:53:26;;;;;;;1.92;0.93;;;15.90;78.30;;;;;;5134130;27;20046;-64
2021/10/21 03:55:54;;;;;;;0.70;0.70;;;15.90;78.30;;;;;;5133832;27;20047;-63
2021/10/21 03:58:20;;;;;;;0.80;0.68;;;15.90;78.30;;;;;;5115148;27;20050;-61
2021/10/21 04:00:46;;;;;;;0.88;0.68;;;15.90;78.30;;;;;;5115612;27;20087;-62
2021/10/21 04:03:12;;;;;;;0.93;0.63;;;15.90;78.30;;;;;;5133268;27;20078;-63
2021/10/21 04:05:38;;;;;;;1.02;0.60;;;15.90;78.90;;;;;;5133448;27;20047;-63
2021/10/21 04:08:05;;;;;;;1.17;0.55;;;15.90;78.30;;;;;;5133706;27;20483;-63
2021/10/21 04:10:31;;;;;;;1.23;0.60;;;15.90;78.30;;;;;;5134022;27;20078;-63
2021/10/21 04:12:57;;;;;;;0.95;0.65;;;15.90;78.30;;;;;;5133443;27;20127;-63
2021/10/21 04:15:25;;;;;;;1.23;0.60;;;15.90;78.30;;;;;;5131046;27;20035;-61
2021/10/21 04:17:54;;;;;;;1.40;0.70;;;15.90;78.30;;;;;;5133089;27;20082;-59
2021/10/21 04:20:21;;;;;;;0.93;0.60;;;15.90;78.30;;;;;;5133053;27;20513;-63
2021/10/21 04:22:47;;;;;;;0.60;0.55;;;15.90;78.30;;;;;;5133096;27;20118;-58
2021/10/21 04:25:14;;;;;;;0.75;0.57;;;15.90;78.30;;;;;;5133594;27;20042;-62
2021/10/21 04:27:39;;;;;;;1.98;0.75;;;15.90;78.30;;;;;;5133381;27;20531;-63
2021/10/21 04:30:06;;;;;;;1.67;0.77;;;15.90;78.30;;;;;;5114989;28;20087;-63
2021/10/21 04:32:32;;;;;;;0.85;0.50;;;15.90;78.30;;;;;;5133643;28;20047;-63
2021/10/21 04:34:58;;;;;;;1.23;0.40;;;15.90;78.30;;;;;;5114228;28;20058;-62
2021/10/21 04:37:25;;;;;;;1.02;0.57;;;15.90;78.30;;;;;;5133108;28;20082;-62
2021/10/21 04:39:51;;;;;;;1.35;0.68;;;15.90;78.30;;;;;;5132637;28;20409;-63
2021/10/21 04:42:17;;;;;;;1.45;0.80;;;15.90;78.30;;;;;;5132774;28;20078;-62
2021/10/21 04:44:43;;;;;;;0.85;0.50;;;15.90;78.40;;;;;;5114393;28;20051;-61
2021/10/21 04:47:10;;;;;;;0.75;0.60;;;15.90;78.40;;;;;;5133152;28;20444;-63
2021/10/21 04:49:36;;;;;;;1.67;0.60;;;15.90;78.30;;;;;;5133219;28;20164;-63
2021/10/21 04:52:02;;;;;;;0.80;0.63;;;15.90;78.40;;;;;;5148637;27;20047;-61
2021/10/21 04:54:28;;;;;;;0.68;0.50;;;15.90;78.40;;;;;;5136510;27;20050;-61
2021/10/21 04:56:54;;;;;;;0.98;0.57;;;15.90;78.40;;;;;;5137635;27;20046;-62
2021/10/21 04:59:19;;;;;;;0.95;0.55;;;15.90;78.40;;;;;;5137440;27;20035;-61
2021/10/21 05:01:45;;;;;;;0.50;0.50;;;15.90;78.40;;;;;;5137193;27;20047;-63
2021/10/21 05:04:11;;;;;;;0.50;0.50;;;15.90;78.40;;;;;;5137102;27;20039;-60
2021/10/21 05:06:36;;;;;;;0.40;0.40;;;15.90;78.40;;;;;;5136519;27;20058;-61
2021/10/21 05:09:03;;;;;;;0.47;0.40;;;15.90;78.40;;;;;;5136510;27;20082;-60
2021/10/21 05:11:28;;;;;;;1.45;0.88;;;15.80;78.50;;;;;;5118381;27;20118;-61
2021/10/21 05:13:54;;;;;;;0.95;0.50;;;15.90;78.50;;;;;;5137170;27;20459;-61
2021/10/21 05:16:20;;;;;;;0.95;0.52;;;15.90;78.60;;;;;;5136726;27;20046;-60
2021/10/21 05:18:46;;;;;;;0.90;0.50;;;15.90;78.50;;;;;;5136743;27;20087;-58
2021/10/21 05:21:12;;;;;;;0.85;0.50;;;15.90;78.50;;;;;;5136645;27;20108;-63
2021/10/21 05:23:38;;;;;;;1.30;0.52;;;15.90;78.60;;;;;;5136517;27;20075;-58
2021/10/21 05:26:03;;;;;;;1.20;0.50;;;15.80;78.60;;;;;;5136959;27;20465;-60
2021/10/21 05:28:29;;;;;;;0.95;0.60;;;15.70;78.60;;;;;;5136557;27;20039;-62
2021/10/21 05:30:55;;;;;;;0.70;0.60;;;15.80;78.60;;;;;;5136839;27;20103;-61
2021/10/21 05:33:25;;;;;;;0.70;0.70;;;15.80;78.60;;;;;;5136763;27;20487;-59
2021/10/21 05:35:51;;;;;;;1.75;0.60;;;15.80;78.60;;;;;;5136368;27;20047;-60
2021/10/21 05:38:16;;;;;;;1.25;0.88;;;15.80;78.60;;;;;;5136366;27;20038;-60
2021/10/21 05:40:42;;;;;;;1.52;0.38;;;15.80;78.50;;;;;;5136202;27;20107;-59
2021/10/21 05:43:07;;;;;;;1.05;0.50;;;15.80;78.60;;;;;;5117959;27;20035;-63
2021/10/21 05:45:33;;;;;;;1.63;0.63;;;15.80;78.60;;;;;;5136494;27;20047;-59
2021/10/21 05:47:59;;;;;;;0.50;0.50;;;15.90;78.70;;;;;;5135919;27;20046;-63
2021/10/21 05:50:25;;;;;;;0.80;0.50;;;15.80;78.60;;;;;;5136039;27;20035;-62
2021/10/21 05:52:50;;;;;;;1.10;0.40;;;15.80;78.70;;;;;;5118004;27;20070;-60
2021/10/21 05:55:16;;;;;;;0.75;0.32;;;15.80;78.70;;;;;;5136063;27;20037;-62
2021/10/21 05:57:42;;;;;;;0.55;0.47;;;15.80;78.70;;;;;;5136508;27;20087;-63
2021/10/21 06:00:09;;;;;;;0.40;0.40;;;15.80;78.80;;;;;;5135900;27;20047;-59
2021/10/21 06:02:36;;;;;;;0.38;0.30;;;15.80;78.80;;;;;;5117428;27;20131;-59
2021/10/21 06:05:04;;;;;;;1.38;0.50;;;15.80;78.80;;;;;;5134971;27;20084;-62
2021/10/21 06:07:29;;;;;;;1.83;0.52;;;15.80;78.80;;;;;;5136272;27;20039;-59
2021/10/21 06:09:57;;;;;;;1.30;0.63;;;15.80;78.80;;;;;;5135896;27;20092;-64
2021/10/21 06:12:26;;;;;;;1.00;0.47;;;15.80;78.90;;;;;;5116978;27;20112;-63
2021/10/21 06:14:52;;;;;;;1.02;0.50;;;15.80;78.90;;;;;;5135976;27;20082;-63
2021/10/21 06:17:18;;;;;;;1.45;0.80;;;15.80;78.90;;;;;;5135783;27;20082;-61
2021/10/21 06:19:44;;;;;;;0.55;0.40;;;15.80;78.90;;;;;;5135466;27;20051;-58
2021/10/21 06:22:12;;;;;;;1.10;0.52;;;15.80;78.90;;;;;;5135393;27;20039;-61
2021/10/21 06:24:38;;;;;;;2.42;0.70;;;15.80;78.90;;;;;;5135218;27;20057;-61
2021/10/21 06:27:04;;;;;;;2.17;0.50;;;15.80;78.90;;;;;;5134469;27;20039;-62
2021/10/21 06:29:30;;;;;;;1.00;0.35;;;15.80;78.90;;;;;;5135155;27;20040;-62
2021/10/21 06:31:57;;;;;;;0.63;0.35;;;15.80;78.90;;;;;;5134908;27;20053;-61
2021/10/21 06:34:23;;;;;;;0.38;0.30;;;15.80;79.00;;;;;;5135582;27;20093;-61
2021/10/21 06:36:49;;;;;;;0.95;0.60;;;15.80;79.00;;;;;;5135571;27;20059;-59
2021/10/21 06:39:15;;;;;;;1.65;0.55;;;15.80;79.00;;;;;;5116956;27;20047;-58
2021/10/21 06:41:41;;;;;;;0.75;0.60;;;15.80;79.00;;;;;;5135434;27;20090;-61
2021/10/21 06:44:07;;;;;;;0.32;0.30;;;15.80;79.00;;;;;;5134791;27;20034;-62
2021/10/21 06:46:33;;;;;;;0.50;0.30;;;15.80;78.90;;;;;;5135501;27;20414;-59
2021/10/21 06:49:00;;;;;;;1.83;0.50;;;15.80;79.00;;;;;;5135596;27;20039;-62
2021/10/21 06:51:26;;;;;;;0.43;0.32;;;15.80;78.90;;;;;;5099359;27;20053;-57
2021/10/21 06:53:52;;;;;;;0.40;0.40;;;15.80;79.00;;;;;;5115212;27;20582;-58
2021/10/21 06:56:18;;;;;;;0.68;0.50;;;15.80;79.00;;;;;;5135233;27;20049;-58
2021/10/21 06:58:44;;;;;;;0.40;0.40;;;15.80;78.90;;;;;;5134711;27;20123;-57
2021/10/21 07:01:11;;;;;;;1.17;0.68;;;15.70;78.90;;;;;;5135039;27;20394;-58
2021/10/21 07:03:36;;;;;;;0.73;0.50;;;15.80;79.00;;;;;;5134666;27;20134;-64
2021/10/21 07:06:02;;;;;;;1.27;0.57;;;15.80;78.90;;;;;;5135202;27;20082;-58
2021/10/21 07:08:28;;;;;;;1.73;0.75;;;15.80;78.90;;;;;;5135093;27;20055;-60
2021/10/21 07:10:56;;;;;;;0.47;0.30;;;15.80;78.90;;;;;;5134789;27;20130;-59
2021/10/21 07:13:22;;;;;;;0.65;0.60;;;15.80;78.90;;;;;;5115694;27;20039;-59
2021/10/21 07:15:48;;;;;;;0.30;0.30;;;15.80;78.90;;;;;;5134325;27;20047;-58
2021/10/21 07:18:14;;;;;;;1.15;0.30;;;15.80;78.90;;;;;;5134385;27;20047;-58
2021/10/21 07:20:40;;;;;;;0.47;0.40;;;15.80;78.90;;;;;;5134655;27;20051;-60
2021/10/21 07:23:06;;;;;;;0.50;0.47;;;15.80;78.90;;;;;;5134525;27;20205;-59
2021/10/21 07:25:32;;;;;;;0.70;0.50;;;15.80;78.90;;;;;;5134122;27;20075;-62
2021/10/21 07:27:58;;;;;;;0.60;0.25;;;15.80;78.90;;;;;;5134482;27;20046;-60
2021/10/21 07:30:26;;;;;;;1.23;0.50;;;15.80;78.90;;;;;;5134072;27;20046;-59
2021/10/21 07:32:52;;;;;;;1.25;0.40;;;15.80;78.90;;;;;;5134239;27;20475;-59
2021/10/21 07:35:18;;;;;;;0.50;0.38;;;15.70;78.80;;;;;;5134063;27;20045;-58
2021/10/21 07:37:44;;;;;;;0.43;0.30;;;15.70;78.80;;;;;;5134471;27;20039;-59
2021/10/21 07:40:10;;;;;;;1.95;0.60;;;15.80;78.90;;;;;;5133901;27;20039;-59
2021/10/21 07:42:40;;;;;;;0.57;0.40;;;15.80;78.90;;;;;;5134209;27;20062;-58
2021/10/21 07:45:08;;;;;;;0.85;0.38;;;15.80;78.90;;;;;;5133948;27;20087;-58
2021/10/21 07:47:34;;;;;;;0.50;0.50;;;15.80;78.90;;;;;;5133519;27;20104;-58
2021/10/21 07:50:02;;;;;;;0.45;0.40;;;15.80;78.80;;;;;;5134061;27;20081;-60
2021/10/21 07:52:28;;;;;;;1.02;0.50;;;15.80;78.80;;;;;;5133957;27;20043;-63
2021/10/21 07:54:53;;;;;;;0.73;0.47;;;15.80;78.80;;;;;;5133841;27;20049;-63
2021/10/21 07:57:20;;;;;;;0.40;0.30;;;15.80;78.80;;;;;;5133162;27;20045;-58
2021/10/21 07:59:47;;;;;;;0.95;0.60;;;15.70;78.80;;;;;;5133835;27;20211;-59
2021/10/21 08:02:13;;;;;;;0.73;0.47;;;15.80;78.80;;;;;;5114715;27;20071;-62
2021/10/21 08:04:39;;;;;;;0.50;0.50;;;15.80;78.80;;;;;;5133940;27;20117;-61
2021/10/21 08:07:05;;;;;;;0.98;0.40;;;15.70;78.80;;;;;;5133481;27;20495;-63
2021/10/21 08:09:31;;;;;;;0.50;0.50;;;15.70;78.80;;;;;;5133646;27;20043;-60
2021/10/21 08:11:58;;;;;;;0.80;0.30;;;15.70;78.70;;;;;;5133633;27;20041;-64
2021/10/21 08:14:24;;;;;;;1.23;0.45;;;15.80;78.80;;;;;;5134052;27;20091;-59
2021/10/21 08:16:51;;;;;;;0.95;0.40;;;15.70;78.80;;;;;;5133788;27;20591;-59
2021/10/21 08:19:16;;;;;;;0.40;0.40;;;15.80;78.90;;;;;;5133232;27;20051;-60
2021/10/21 08:21:43;;;;;;;0.98;0.47;;;15.70;78.80;;;;;;5133781;27;20054;-61
2021/10/21 08:24:09;;;;;;;0.52;0.38;;;15.70;78.80;;;;;;5133918;27;20130;-63
2021/10/21 08:26:37;;;;;;;0.40;0.40;;;15.80;78.80;;;;;;5133695;27;20078;-60
2021/10/21 08:29:03;;;;;;;0.95;0.50;;;15.80;78.90;;;;;;5132925;27;20118;-58
2021/10/21 08:31:29;;;;;;;0.57;0.40;;;15.70;79.20;;;;;;5115091;28;20126;-61
2021/10/21 08:33:55;;;;;;;0.57;0.50;;;15.60;78.70;;;;;;5097443;28;20053;-59
2021/10/21 08:36:22;;;;;;;0.43;0.40;;;15.80;78.80;;;;;;5133613;28;20415;-61
2021/10/21 08:38:52;;;;;;;0.40;0.40;;;15.70;78.80;;;;;;5132931;28;20095;-57
2021/10/21 08:41:19;;;;;;;1.25;0.40;;;15.70;78.80;;;;;;5133409;28;20066;-58
2021/10/21 08:43:46;;;;;;;0.40;0.40;;;15.80;78.80;;;;;;5133595;28;20130;-58
2021/10/21 08:46:14;;;;;;;0.77;0.50;;;15.70;78.80;;;;;;5133413;28;20051;-58
2021/10/21 08:48:42;;;;;;;1.45;0.40;;;15.70;78.80;;;;;;5133112;28;20050;-55
2021/10/21 08:51:09;;;;;;;0.85;0.50;;;15.70;78.80;;;;;;5133230;28;20037;-58
2021/10/21 08:53:35;;;;;;;0.65;0.40;;;15.70;78.80;;;;;;5133290;28;20475;-59
2021/10/21 08:56:00;;;;;;;1.13;0.40;;;15.70;78.80;;;;;;5133423;28;20160;-59
2021/10/21 08:58:27;;;;;;;0.32;0.32;;;15.70;78.80;;;;;;5133352;28;20455;-59
2021/10/21 09:01:07;;;;;;;1.08;0.50;;;15.70;78.80;;;;;;5133108;28;20047;-57
2021/10/21 09:08:58;;;;;;;1.17;0.30;;;15.70;78.90;;;;;;5133288;28;20066;-58
2021/10/21 09:11:24;;;;;;;0.77;0.40;;;15.70;78.80;;;;;;5132636;28;20043;-58
2021/10/21 09:14:11;;;;;;;0.70;0.40;;;15.80;78.90;;;;;;5133366;28;20046;-58
2021/10/21 09:16:39;;;;;;;1.02;0.32;;;15.70;78.70;;;;;;5133293;28;20093;-61
2021/10/21 09:19:07;;;;;;;1.15;0.32;;;15.70;78.80;;;;;;5114500;28;20055;-58
2021/10/21 09:21:35;;;;;;;0.32;0.32;;;15.70;78.80;;;;;;5132097;28;20062;-58
2021/10/21 09:24:34;;;;;;;0.70;0.30;;;15.70;78.80;;;;;;5133112;28;20035;-58
2021/10/21 09:27:09;;;;;;;1.08;0.60;;;15.70;78.70;;;;;;5132860;28;20054;-59
2021/10/21 09:29:41;;;;;;;0.43;0.43;;;15.70;78.90;;;;;;5133038;28;20039;-59
2021/10/21 09:32:15;;;;;;;0.65;0.40;;;15.70;78.90;;;;;;5132376;28;20074;-58
2021/10/21 09:34:55;;;;;;;0.90;0.38;;;15.70;78.90;;;;;;5132678;28;20483;-58
2021/10/21 09:37:27;;;;;;;0.65;0.43;;;15.70;78.80;;;;;;5132631;28;20043;-59
2021/10/21 09:39:56;;;;;;;1.10;0.70;;;15.70;78.80;;;;;;5135247;27;20039;-59
2021/10/21 09:42:30;;;;;;;1.75;0.50;;;15.70;78.90;;;;;;5136213;27;20050;-60
2021/10/21 09:45:16;;;;;;;1.05;0.50;;;15.70;78.80;;;;;;5136133;27;20479;-58
2021/10/21 09:47:50;;;;;;;0.82;0.40;;;15.70;78.80;;;;;;5118008;27;20077;-58
2021/10/21 09:50:31;;;;;;;0.30;0.30;;;15.70;78.90;;;;;;5136660;27;20368;-59
2021/10/21 09:53:14;;;;;;;0.63;0.35;;;15.70;78.90;;;;;;5135528;27;20419;-60
2021/10/21 09:55:42;;;;;;;0.50;0.40;;;15.70;78.80;;;;;;5136476;27;20171;-60
2021/10/21 09:58:11;;;;;;;0.55;0.47;;;15.70;78.90;;;;;;5136362;27;20436;-59
2021/10/21 10:00:40;;;;;;;0.68;0.50;;;15.70;78.90;;;;;;5136340;27;20039;-58
2021/10/21 10:03:30;;;;;;;1.13;0.52;;;15.70;78.90;;;;;;5117053;27;20043;-59
2021/10/21 10:05:57;;;;;;;0.77;0.40;;;15.80;78.80;;;;;;5136156;27;20123;-57
2021/10/21 10:08:24;;;;;;;0.43;0.38;;;15.70;78.90;;;;;;5135619;27;20467;-61
2021/10/21 10:10:54;;;;;;;0.73;0.47;;;15.70;78.90;;;;;;5136229;27;20118;-59
2021/10/21 10:13:21;;;;;;;1.10;0.40;;;15.80;78.90;;;;;;5136209;27;20157;-59
2021/10/21 10:15:51;;;;;;;1.15;0.60;;;15.70;78.80;;;;;;5135375;27;20544;-60
2021/10/21 10:18:20;;;;;;;0.50;0.40;;;15.70;78.80;;;;;;5135653;27;20066;-59
2021/10/21 10:21:17;;;;;;;0.35;0.35;;;15.70;78.80;;;;;;5136097;27;20384;-59
2021/10/21 10:24:13;;;;;;;1.60;0.60;;;15.70;78.70;;;;;;5032286;28;20065;-58
2021/10/21 10:26:54;;;;;;;0.32;0.30;;;15.70;78.70;;;;;;5031469;28;20064;-58
2021/10/21 10:29:45;;;;;;;1.40;0.50;;;15.70;78.70;;;;;;5032506;28;20057;-59
2021/10/21 10:32:30;;;;;;;1.45;0.70;;;15.70;78.60;;;;;;5032675;28;20080;-58
2021/10/21 10:34:56;;;;;;;0.57;0.40;;;15.70;78.70;;;;;;5032213;28;20057;-60
2021/10/21 10:37:21;;;;;;;1.15;0.60;;;15.70;78.80;;;;;;5032135;28;20041;-58
2021/10/21 10:39:52;;;;;;;1.65;0.40;;;15.70;78.70;;;;;;5031821;28;20045;-58
2021/10/21 10:42:33;;;;;;;0.85;0.50;;;15.70;78.70;;;;;;5032129;28;20053;-60
2021/10/21 10:45:01;;;;;;;1.20;0.40;;;15.70;78.60;;;;;;5015726;28;20079;-58
2021/10/21 10:47:49;;;;;;;0.57;0.40;;;15.70;78.70;;;;;;5031848;28;20132;-58
2021/10/21 10:50:43;;;;;;;0.63;0.50;;;15.70;78.60;;;;;;5031616;28;20045;-59
2021/10/21 10:53:10;;;;;;;0.82;0.40;;;15.70;78.60;;;;;;5031920;28;20219;-59
2021/10/21 10:55:52;;;;;;;0.47;0.32;;;15.70;78.70;;;;;;5031572;28;20050;-58
2021/10/21 10:58:29;;;;;;;0.82;0.40;;;15.70;78.70;;;;;;5031190;28;20045;-58
2021/10/21 11:00:59;;;;;;;0.95;0.95;;;15.70;78.70;;;;;;5097758;27;20063;-63
2021/10/21 11:03:41;;;;;;;1.08;0.60;;;15.70;78.70;;;;;;5135204;27;20088;-60
2021/10/21 11:06:07;;;;;;;0.77;0.60;;;15.70;78.60;;;;;;5135127;27;20058;-63
2021/10/21 11:08:58;;;;;;;2.13;0.60;;;15.70;78.60;;;;;;5116215;27;20047;-64
2021/10/21 11:11:40;;;;;;;1.33;0.43;;;15.70;78.50;;;;;;5134562;27;20054;-63
2021/10/21 11:14:11;;;;;;;0.45;0.38;;;15.70;78.50;;;;;;5134923;27;20046;-59
2021/10/21 11:16:42;;;;;;;1.45;0.55;;;15.70;78.60;;;;;;5134675;27;20475;-63
2021/10/21 11:19:08;;;;;;;1.17;0.60;;;15.70;78.60;;;;;;5134172;27;20051;-64
2021/10/21 11:21:50;;;;;;;0.75;0.43;;;15.70;78.60;;;;;;5134638;27;20047;-62
2021/10/21 11:24:44;;;;;;;1.85;0.40;;;15.70;78.50;;;;;;5134827;27;20031;-60
2021/10/21 11:27:10;;;;;;;0.88;0.40;;;15.70;78.50;;;;;;5133074;27;20092;-60
2021/10/21 11:29:36;;;;;;;1.02;0.63;;;15.70;79.20;;;;;;5115752;27;20059;-62
2021/10/21 11:32:05;;;;;;;1.17;0.60;;;15.70;78.50;;;;;;5134361;27;20039;-62
2021/10/21 11:34:31;;;;;;;2.35;0.50;;;15.70;78.50;;;;;;5134677;27;20043;-62
2021/10/21 11:36:57;;;;;;;0.90;0.50;;;15.70;78.50;;;;;;5134195;27;20067;-63
2021/10/21 11:39:30;;;;;;;0.98;0.50;;;15.70;78.50;;;;;;5134410;27;20081;-63
2021/10/21 11:41:56;;;;;;;1.17;0.40;;;15.70;78.50;;;;;;5134192;27;20148;-59
2021/10/21 11:44:22;;;;;;;0.95;0.38;;;15.70;78.50;;;;;;5133762;27;20049;-58
2021/10/21 11:46:57;;;;;;;0.40;0.32;;;15.70;78.50;;;;;;5115141;27;20043;-59
2021/10/21 11:49:28;;;;;;;0.82;0.30;;;15.70;78.50;;;;;;5134404;27;20403;-59
2021/10/21 11:52:09;;;;;;;0.77;0.55;;;15.70;78.50;;;;;;5134025;27;20503;-57
2021/10/21 11:54:36;;;;;;;1.42;0.40;;;15.70;78.40;;;;;;5115471;27;20130;-60
2021/10/21 11:57:02;;;;;;;1.33;0.50;;;15.70;78.50;;;;;;5115336;27;20047;-59
2021/10/21 11:59:36;;;;;;;0.80;0.43;;;15.70;78.50;;;;;;5133371;27;20397;-57
2021/10/21 12:02:11;;;;;;;0.40;0.30;;;15.70;78.40;;;;;;5133503;27;20467;-59
2021/10/21 12:04:38;;;;;;;0.60;0.40;;;15.70;78.40;;;;;;5133800;27;20482;-59
2021/10/21 12:07:04;;;;;;;0.90;0.43;;;15.70;78.40;;;;;;5134045;27;20064;-58
2021/10/21 12:09:36;;;;;;;0.75;0.30;;;15.70;78.40;;;;;;5133358;27;20466;-58
2021/10/21 12:12:04;;;;;;;1.10;0.38;;;15.70;78.40;;;;;;5133779;27;20093;-58
2021/10/21 12:14:31;;;;;;;1.35;0.60;;;15.70;78.40;;;;;;5133559;27;20135;-60
2021/10/21 12:16:57;;;;;;;0.50;0.40;;;15.70;78.40;;;;;;5132907;27;20136;-61
2021/10/21 12:19:27;;;;;;;0.43;0.32;;;15.70;78.40;;;;;;5133623;27;20059;-58
2021/10/21 12:22:03;;;;;;;0.90;0.45;;;15.70;78.40;;;;;;5115295;27;20054;-59
2021/10/21 12:24:29;;;;;;;0.60;0.50;;;15.70;78.40;;;;;;5133543;27;20494;-60
2021/10/21 12:26:58;;;;;;;0.65;0.30;;;15.70;78.40;;;;;;5133791;27;20038;-59
2021/10/21 12:29:38;;;;;;;1.33;0.55;;;15.70;78.40;;;;;;5133216;27;20043;-59
2021/10/21 12:32:09;;;;;;;0.43;0.43;;;15.70;78.40;;;;;;5133283;27;20036;-60
2021/10/21 12:34:35;;;;;;;0.40;0.30;;;15.70;78.40;;;;;;5133502;27;20043;-59
2021/10/21 12:37:07;;;;;;;1.13;0.63;;;15.70;78.40;;;;;;5133397;27;20039;-58
2021/10/21 12:39:33;;;;;;;1.08;0.65;;;15.70;78.40;;;;;;5133016;28;20043;-58
2021/10/21 12:42:08;;;;;;;0.63;0.40;;;15.70;78.40;;;;;;5133227;28;20074;-59
2021/10/21 12:44:40;;;;;;;0.50;0.40;;;15.70;78.40;;;;;;5133514;28;20044;-60
2021/10/21 12:47:27;;;;;;;0.77;0.40;;;15.80;78.40;;;;;;5133113;28;20132;-60
2021/10/21 12:49:58;;;;;;;1.48;0.52;;;15.70;78.30;;;;;;5133251;28;20054;-57
2021/10/21 12:52:25;;;;;;;0.30;0.30;;;15.70;78.40;;;;;;5132584;28;20067;-61
2021/10/21 12:55:05;;;;;;;1.38;0.50;;;15.70;78.40;;;;;;5133582;28;20086;-59
2021/10/21 12:57:31;;;;;;;1.02;0.40;;;15.70;78.30;;;;;;5133339;28;20100;-59
2021/10/21 12:59:59;;;;;;;0.30;0.30;;;15.70;78.40;;;;;;5114469;28;20043;-58